Abilene Regional Airport
KABI : now visible

Airfield :











YOU CAN JOIN US ON...

 
LOGIN :

Register | Disclaimer

   EN    FR    IT 

 









Legend :    VFR   Marginal VFR   IFR   Intensive IFR   Very Intensive IFR
Visi :
Ceiling :
>= 8 km
>= 3000ft
5 to 8 km
1000 to 3000 ft
1500m to 5 km
500 to 1000 ft
800 to 1500m
200 to 500 ft
< 800m
< 200 ft
Symbols :   Thunderstorms  Fog  Heavy snow  Heavy precipitations  Wind > 20 kt







- Airport Elevation : 1791 ft


KABI - Abilene Regional

CURRENT METAR :
  • 181552Z 01021G32KT 10SM CLR 17/07 A2995 RMK AO2 PK WND 35036/1541 SLP123 T01670072

EXPIRED METARs :
  • 181541Z 35029G36KT 10SM FEW019 SCT027 18/08 A2995 RMK AO2 PK WND 35036/1541 T01780083
  • 181452Z 35024G32KT 10SM BKN017 16/12 A2992 RMK AO2 PK WND 35032/1446 SLP115 T01560117 51042
  • 181352Z 35019G23KT 10SM OVC015 15/12 A2989 RMK AO2 SLP104 T01500117

TAF KABI
Valid from the 18 at 12:00 until the 19 at 12:00 UTC


181120Z 1812/1912 34015G23KT P6SM SCT025 SCT250
TEMPO 1812/1815 BKN025
FM181600 35021G30KT P6SM FEW250
FM190100 35006KT P6SM SKC
KZFW FIR / North America



MET'MAP, your aeronautical weather chart ! - Copyright ORBIFLY December 2007 - Disclaimer

ORBIFLY MET'MAP TEAM :

Programming & Development : Alexandra Zaïnal
Concept & Development : Baudouin d'Aumeries
Co-Development & Prog : Marc-Olivier Méhu
Technical & hardware support : Manuel Goepfert

Contact : metmap@orbifly.com




SOURCES & CREDITS :

   NOAA       Earth
Advisory